Panama, New York
Current Conditions -  °F | °C
As of 10:55 PM on Thursday 18 Dec 2014 (Local Time) from KJHW Reporting Station
Overcast Overcast  
Wind Chill: 17°   Ceiling: 800
Heat Index: 27°   Visibility: 3mi
Dew Point: 25°   Wind: 9mph
Humidity: 93%   Direction: 310°NW
Pressure: 30.03"   Gusts: NA
Location:  42.08°N, 79.48°W
Report Text: KJHW 190355Z 31008KT 3SM BKN008 OVC018 M03/M04 A3003 RMK AO1
Loading
Personal Weather Stations






























Interactive Weather Map New forecast layout! Learn more

10-Day Weather Forecast

Advertisements
Track Severe Weather on mobile